RYR9VA GCRR-EGNM
Flight info
| Callsign | RYR9VA |
|---|---|
| Flight time | 3h 36m |
| Altitude | 36000 |
| Route | VASTO DCT NIDEB DCT TIGGI/N0450F380 DCT BUSEN DCT PINEK DCT KORUL DCT EBOMO DCT RUSIB DCT NOZHU/N0448F390 DCT SHIRI DCT TOJAQ DCT EPACE DCT ACCOP DCT MOCQO/N0443F380 P16 MONTY N864 REXAM DCT BARTN DCT POL |
| Aircraft | B738/M-SDE2E3FGHIRWXY/LB1 |
Departure
| Time | 2026-04-29 16:17 |
|---|---|
| Airport | César Manrique-Lanzarote Airport (GCRR) |
Arrival
| Time | 2026-04-29 19:53 |
|---|---|
| Airport | Leeds Bradford Airport (EGNM) |
| Time | Latitude | Longitude | Altitude | Speed | Heading |
|---|---|---|---|---|---|
| 2026-04-29 15:53 | 28.95129 | -13.60697 | 63 ft | 0 kts | 295° |
| 2026-04-29 16:07 | 28.95127 | -13.60692 | 63 ft | 3 kts | 295° |
| 2026-04-29 16:07 | 28.95118 | -13.60671 | 59 ft | 3 kts | 292° |
| 2026-04-29 16:07 | 28.95111 | -13.60649 | 60 ft | 3 kts | 290° |
| 2026-04-29 16:08 | 28.95104 | -13.60627 | 55 ft | 3 kts | 286° |
| 2026-04-29 16:08 | 28.95099 | -13.60605 | 53 ft | 3 kts | 280° |
| 2026-04-29 16:08 | 28.95096 | -13.60582 | 57 ft | 3 kts | 265° |
| 2026-04-29 16:08 | 28.95101 | -13.60562 | 57 ft | 3 kts | 231° |
| 2026-04-29 16:09 | 28.95106 | -13.60555 | 59 ft | 1 kts | 224° |
| 2026-04-29 16:11 | 28.95098 | -13.60564 | 56 ft | 6 kts | 224° |
| 2026-04-29 16:11 | 28.95065 | -13.60597 | 62 ft | 7 kts | 217° |
| 2026-04-29 16:12 | 28.95019 | -13.60631 | 59 ft | 10 kts | 208° |
| 2026-04-29 16:12 | 28.94972 | -13.60659 | 58 ft | 12 kts | 207° |
| 2026-04-29 16:12 | 28.94885 | -13.60618 | 59 ft | 12 kts | 117° |
| 2026-04-29 16:12 | 28.94823 | -13.60572 | 62 ft | 12 kts | 194° |
| 2026-04-29 16:13 | 28.94749 | -13.60612 | 54 ft | 12 kts | 208° |
| 2026-04-29 16:13 | 28.94679 | -13.60653 | 61 ft | 11 kts | 206° |
| 2026-04-29 16:13 | 28.94601 | -13.60698 | 57 ft | 14 kts | 208° |
| 2026-04-29 16:13 | 28.94502 | -13.60754 | 56 ft | 18 kts | 206° |
| 2026-04-29 16:14 | 28.94381 | -13.60824 | 60 ft | 22 kts | 207° |
| 2026-04-29 16:14 | 28.94238 | -13.60906 | 58 ft | 23 kts | 207° |
| 2026-04-29 16:14 | 28.94098 | -13.60987 | 57 ft | 22 kts | 207° |
| 2026-04-29 16:14 | 28.93961 | -13.61065 | 59 ft | 22 kts | 206° |
| 2026-04-29 16:15 | 28.93828 | -13.61141 | 56 ft | 21 kts | 206° |
| 2026-04-29 16:15 | 28.93708 | -13.61211 | 62 ft | 14 kts | 206° |
| 2026-04-29 16:15 | 28.93637 | -13.61174 | 59 ft | 13 kts | 118° |
| 2026-04-29 16:15 | 28.93621 | -13.61077 | 57 ft | 13 kts | 62° |
| 2026-04-29 16:16 | 28.93669 | -13.61031 | 58 ft | 6 kts | 26° |
| 2026-04-29 16:16 | 28.93706 | -13.61011 | 60 ft | 29 kts | 26° |
| 2026-04-29 16:16 | 28.94156 | -13.60749 | 62 ft | 113 kts | 27° |
| 2026-04-29 16:16 | 28.95058 | -13.60213 | 205 ft | 168 kts | 30° |
| 2026-04-29 16:17 | 28.96085 | -13.59618 | 1298 ft | 161 kts | 25° |
| 2026-04-29 16:17 | 28.97081 | -13.59034 | 2291 ft | 164 kts | 31° |
| 2026-04-29 16:17 | 28.98029 | -13.58167 | 2851 ft | 186 kts | 44° |
| 2026-04-29 16:17 | 28.98988 | -13.57067 | 3334 ft | 207 kts | 40° |
| 2026-04-29 16:18 | 29.00162 | -13.55964 | 3565 ft | 230 kts | 38° |
| 2026-04-29 16:18 | 29.01268 | -13.54559 | 3986 ft | 247 kts | 56° |
| 2026-04-29 16:18 | 29.01923 | -13.52687 | 4370 ft | 265 kts | 69° |
| 2026-04-29 16:18 | 29.02930 | -13.50918 | 4986 ft | 270 kts | 42° |
| 2026-04-29 16:19 | 29.04289 | -13.49428 | 5890 ft | 273 kts | 43° |
| 2026-04-29 16:19 | 29.05647 | -13.47870 | 6617 ft | 280 kts | 44° |
| 2026-04-29 16:19 | 29.07021 | -13.46264 | 7382 ft | 284 kts | 45° |
| 2026-04-29 16:19 | 29.08413 | -13.44630 | 8124 ft | 290 kts | 45° |
| 2026-04-29 16:20 | 29.09926 | -13.43071 | 8816 ft | 296 kts | 29° |
| 2026-04-29 16:20 | 29.11881 | -13.42378 | 9572 ft | 297 kts | 2° |
| 2026-04-29 16:20 | 29.13946 | -13.42504 | 10342 ft | 299 kts | 351° |
| 2026-04-29 16:20 | 29.16014 | -13.42824 | 11078 ft | 301 kts | 350° |
| 2026-04-29 16:21 | 29.18100 | -13.43177 | 11828 ft | 304 kts | 349° |
| 2026-04-29 16:21 | 29.20197 | -13.43530 | 12575 ft | 307 kts | 349° |
| 2026-04-29 16:21 | 29.22323 | -13.43879 | 13321 ft | 310 kts | 349° |
| 2026-04-29 16:21 | 29.24467 | -13.44221 | 14043 ft | 313 kts | 349° |
| 2026-04-29 16:22 | 29.26612 | -13.44558 | 14693 ft | 316 kts | 349° |
| 2026-04-29 16:22 | 29.28796 | -13.44897 | 15353 ft | 319 kts | 349° |
| 2026-04-29 16:22 | 29.31035 | -13.45243 | 15787 ft | 333 kts | 349° |
| 2026-04-29 16:22 | 29.33400 | -13.45610 | 15938 ft | 353 kts | 349° |
| 2026-04-29 16:23 | 29.35869 | -13.45989 | 16356 ft | 363 kts | 350° |
| 2026-04-29 16:23 | 29.38404 | -13.46376 | 16985 ft | 367 kts | 350° |
| 2026-04-29 16:23 | 29.40945 | -13.46764 | 17658 ft | 370 kts | 349° |
| 2026-04-29 16:23 | 29.43501 | -13.47156 | 18309 ft | 373 kts | 349° |
| 2026-04-29 16:24 | 29.46097 | -13.47495 | 18847 ft | 377 kts | 352° |
| 2026-04-29 16:24 | 29.48727 | -13.47749 | 19399 ft | 381 kts | 353° |
| 2026-04-29 16:24 | 29.51392 | -13.47977 | 19953 ft | 385 kts | 353° |
| 2026-04-29 16:24 | 29.54070 | -13.48201 | 20513 ft | 387 kts | 353° |
| 2026-04-29 16:25 | 29.56773 | -13.48434 | 21053 ft | 391 kts | 353° |
| 2026-04-29 16:25 | 29.59501 | -13.48676 | 21585 ft | 394 kts | 352° |
| 2026-04-29 16:25 | 29.62244 | -13.48925 | 22103 ft | 397 kts | 352° |
| 2026-04-29 16:25 | 29.64980 | -13.49178 | 22629 ft | 400 kts | 352° |
| 2026-04-29 16:26 | 29.67765 | -13.49437 | 23155 ft | 403 kts | 352° |
| 2026-04-29 16:26 | 29.70577 | -13.49699 | 23645 ft | 406 kts | 352° |
| 2026-04-29 16:26 | 29.73401 | -13.49964 | 24060 ft | 409 kts | 352° |
| 2026-04-29 16:26 | 29.76250 | -13.50231 | 24505 ft | 411 kts | 353° |
| 2026-04-29 16:27 | 29.79100 | -13.50498 | 24943 ft | 413 kts | 352° |
| 2026-04-29 16:27 | 29.81984 | -13.50768 | 25350 ft | 416 kts | 352° |
| 2026-04-29 16:27 | 29.84873 | -13.51040 | 25749 ft | 419 kts | 353° |
| 2026-04-29 16:27 | 29.87791 | -13.51314 | 26161 ft | 421 kts | 353° |
| 2026-04-29 16:28 | 29.90728 | -13.51590 | 26476 ft | 426 kts | 353° |
| 2026-04-29 16:28 | 29.93707 | -13.51870 | 26700 ft | 432 kts | 353° |
| 2026-04-29 16:28 | 29.96724 | -13.52155 | 26963 ft | 438 kts | 353° |
| 2026-04-29 16:28 | 29.99774 | -13.52441 | 27341 ft | 439 kts | 353° |
| 2026-04-29 16:29 | 30.02820 | -13.52727 | 27860 ft | 438 kts | 353° |
| 2026-04-29 16:29 | 30.05845 | -13.53011 | 28395 ft | 436 kts | 353° |
| 2026-04-29 16:29 | 30.08866 | -13.53295 | 28878 ft | 435 kts | 353° |
| 2026-04-29 16:29 | 30.11842 | -13.53576 | 29336 ft | 435 kts | 353° |
| 2026-04-29 16:30 | 30.14856 | -13.53861 | 29823 ft | 434 kts | 353° |
| 2026-04-29 16:30 | 30.17860 | -13.54146 | 30253 ft | 433 kts | 353° |
| 2026-04-29 16:30 | 30.20865 | -13.54432 | 30616 ft | 433 kts | 353° |
| 2026-04-29 16:30 | 30.23865 | -13.54717 | 30999 ft | 432 kts | 353° |
| 2026-04-29 16:31 | 30.26859 | -13.55003 | 31395 ft | 431 kts | 353° |
| 2026-04-29 16:31 | 30.29841 | -13.55287 | 31752 ft | 430 kts | 353° |
| 2026-04-29 16:31 | 30.32833 | -13.55573 | 32086 ft | 431 kts | 353° |
| 2026-04-29 16:31 | 30.35816 | -13.55857 | 32462 ft | 430 kts | 353° |
| 2026-04-29 16:32 | 30.38787 | -13.56141 | 32844 ft | 428 kts | 353° |
| 2026-04-29 16:32 | 30.40751 | -13.56329 | 33073 ft | 428 kts | 353° |
| 2026-04-29 16:32 | 30.44724 | -13.56709 | 33491 ft | 428 kts | 353° |
| 2026-04-29 16:32 | 30.47698 | -13.56993 | 33839 ft | 427 kts | 353° |
| 2026-04-29 16:33 | 30.53501 | -13.55843 | 34336 ft | 433 kts | 26° |
| 2026-04-29 16:33 | 30.56170 | -13.54212 | 34609 ft | 433 kts | 27° |
| 2026-04-29 16:33 | 30.58811 | -13.52525 | 34850 ft | 433 kts | 27° |
| 2026-04-29 16:34 | 30.61448 | -13.50819 | 35082 ft | 434 kts | 27° |
| 2026-04-29 16:34 | 30.64077 | -13.49123 | 35335 ft | 433 kts | 27° |
| 2026-04-29 16:34 | 30.66718 | -13.47432 | 35566 ft | 433 kts | 27° |
| 2026-04-29 16:34 | 30.69356 | -13.45755 | 35800 ft | 433 kts | 26° |
| 2026-04-29 16:35 | 30.72004 | -13.44081 | 35991 ft | 434 kts | 26° |
| 2026-04-29 16:35 | 30.74672 | -13.42401 | 35972 ft | 439 kts | 26° |
| 2026-04-29 16:35 | 30.80008 | -13.39044 | 35972 ft | 437 kts | 26° |
| 2026-04-29 16:36 | 30.85397 | -13.35652 | 35995 ft | 445 kts | 26° |
| 2026-04-29 16:36 | 30.90912 | -13.32177 | 36006 ft | 456 kts | 26° |
| 2026-04-29 16:37 | 30.96550 | -13.28617 | 35991 ft | 466 kts | 27° |
| 2026-04-29 16:37 | 31.01336 | -13.25590 | 36003 ft | 474 kts | 27° |
| 2026-04-29 16:38 | 31.08181 | -13.21255 | 35991 ft | 483 kts | 27° |
| 2026-04-29 16:38 | 31.13118 | -13.18124 | 35988 ft | 486 kts | 27° |
| 2026-04-29 16:39 | 31.19075 | -13.14340 | 35980 ft | 488 kts | 27° |
| 2026-04-29 16:39 | 31.25018 | -13.10560 | 35973 ft | 482 kts | 27° |
| 2026-04-29 16:40 | 31.30869 | -13.06832 | 35976 ft | 478 kts | 27° |
| 2026-04-29 16:40 | 31.36667 | -13.03136 | 35986 ft | 477 kts | 27° |
| 2026-04-29 16:41 | 31.42488 | -12.99419 | 35980 ft | 476 kts | 27° |
| 2026-04-29 16:41 | 31.48301 | -12.95701 | 35985 ft | 476 kts | 27° |
| 2026-04-29 16:42 | 31.54111 | -12.91981 | 35981 ft | 476 kts | 27° |
| 2026-04-29 16:42 | 31.59929 | -12.88250 | 35985 ft | 476 kts | 27° |
| 2026-04-29 16:43 | 31.65749 | -12.84511 | 35981 ft | 476 kts | 27° |
| 2026-04-29 16:43 | 31.71559 | -12.80775 | 35986 ft | 476 kts | 27° |
| 2026-04-29 16:44 | 31.77376 | -12.77027 | 35981 ft | 476 kts | 27° |
| 2026-04-29 16:44 | 31.83145 | -12.73306 | 35983 ft | 476 kts | 27° |
| 2026-04-29 16:45 | 31.88957 | -12.69552 | 35978 ft | 476 kts | 27° |
| 2026-04-29 16:45 | 31.94764 | -12.65794 | 35981 ft | 476 kts | 27° |
| 2026-04-29 16:46 | 32.00561 | -12.62039 | 35977 ft | 476 kts | 27° |
| 2026-04-29 16:46 | 32.06365 | -12.58273 | 35982 ft | 475 kts | 27° |
| 2026-04-29 16:47 | 32.12152 | -12.54513 | 35972 ft | 475 kts | 27° |
| 2026-04-29 16:47 | 32.17945 | -12.50743 | 35990 ft | 475 kts | 27° |
| 2026-04-29 16:48 | 32.23730 | -12.46974 | 35976 ft | 475 kts | 27° |
| 2026-04-29 16:48 | 32.29512 | -12.43200 | 35981 ft | 474 kts | 27° |
| 2026-04-29 16:49 | 32.35291 | -12.39423 | 35979 ft | 474 kts | 27° |
| 2026-04-29 16:49 | 32.41026 | -12.35670 | 35978 ft | 474 kts | 27° |
| 2026-04-29 16:50 | 32.46787 | -12.31894 | 35977 ft | 474 kts | 27° |
| 2026-04-29 16:50 | 32.52559 | -12.28104 | 35981 ft | 474 kts | 27° |
| 2026-04-29 16:51 | 32.58322 | -12.24315 | 35977 ft | 473 kts | 27° |
| 2026-04-29 16:51 | 32.64091 | -12.20517 | 35979 ft | 473 kts | 27° |
| 2026-04-29 16:52 | 32.69843 | -12.16723 | 35976 ft | 473 kts | 27° |
| 2026-04-29 16:52 | 32.75602 | -12.12920 | 35977 ft | 473 kts | 27° |
| 2026-04-29 16:53 | 32.81321 | -12.09137 | 35976 ft | 473 kts | 27° |
| 2026-04-29 16:53 | 32.87072 | -12.05327 | 35978 ft | 473 kts | 28° |
| 2026-04-29 16:54 | 32.92826 | -12.01510 | 35971 ft | 473 kts | 27° |
| 2026-04-29 16:54 | 32.98758 | -11.98209 | 35975 ft | 470 kts | 15° |
| 2026-04-29 16:55 | 33.05041 | -11.96090 | 35969 ft | 469 kts | 14° |
| 2026-04-29 16:55 | 33.11347 | -11.94046 | 35977 ft | 469 kts | 14° |
| 2026-04-29 16:56 | 33.17600 | -11.91966 | 35975 ft | 470 kts | 14° |
| 2026-04-29 16:56 | 33.23924 | -11.89821 | 35978 ft | 470 kts | 15° |
| 2026-04-29 16:57 | 33.30221 | -11.87669 | 35979 ft | 470 kts | 14° |
| 2026-04-29 16:57 | 33.36504 | -11.85519 | 35977 ft | 470 kts | 14° |
| 2026-04-29 16:58 | 33.42765 | -11.83376 | 35973 ft | 471 kts | 15° |
| 2026-04-29 16:58 | 33.49073 | -11.81213 | 35976 ft | 471 kts | 15° |
| 2026-04-29 16:59 | 33.55376 | -11.79049 | 35968 ft | 471 kts | 15° |
| 2026-04-29 16:59 | 33.61684 | -11.76881 | 35974 ft | 472 kts | 15° |
| 2026-04-29 17:00 | 33.67995 | -11.74709 | 35974 ft | 472 kts | 15° |
| 2026-04-29 17:00 | 33.74318 | -11.72528 | 35973 ft | 472 kts | 15° |
| 2026-04-29 17:01 | 33.80631 | -11.70347 | 35974 ft | 473 kts | 15° |
| 2026-04-29 17:01 | 33.86920 | -11.68171 | 35967 ft | 473 kts | 15° |
| 2026-04-29 17:02 | 33.93241 | -11.65981 | 35973 ft | 473 kts | 15° |
| 2026-04-29 17:02 | 33.99575 | -11.63783 | 35969 ft | 474 kts | 15° |
| 2026-04-29 17:03 | 34.05926 | -11.61576 | 35966 ft | 475 kts | 15° |
| 2026-04-29 17:03 | 34.12287 | -11.59362 | 35966 ft | 476 kts | 15° |
| 2026-04-29 17:04 | 34.18651 | -11.57144 | 35970 ft | 476 kts | 15° |
| 2026-04-29 17:04 | 34.25016 | -11.54921 | 35967 ft | 476 kts | 15° |
| 2026-04-29 17:05 | 34.31385 | -11.52694 | 35969 ft | 476 kts | 15° |
| 2026-04-29 17:05 | 34.37708 | -11.50479 | 35964 ft | 476 kts | 15° |
| 2026-04-29 17:06 | 34.44078 | -11.48245 | 35969 ft | 476 kts | 15° |
| 2026-04-29 17:06 | 34.50437 | -11.46010 | 35967 ft | 476 kts | 15° |
| 2026-04-29 17:07 | 34.56805 | -11.43769 | 35970 ft | 477 kts | 15° |
| 2026-04-29 17:07 | 34.63188 | -11.41519 | 35966 ft | 477 kts | 15° |
| 2026-04-29 17:08 | 34.69562 | -11.39268 | 35969 ft | 477 kts | 15° |
| 2026-04-29 17:08 | 34.75929 | -11.37016 | 35968 ft | 477 kts | 15° |
| 2026-04-29 17:09 | 34.82275 | -11.34768 | 35972 ft | 477 kts | 15° |
| 2026-04-29 17:09 | 34.88648 | -11.32507 | 35958 ft | 477 kts | 15° |
| 2026-04-29 17:10 | 34.95036 | -11.30237 | 35962 ft | 478 kts | 15° |
| 2026-04-29 17:10 | 35.01420 | -11.27965 | 35966 ft | 478 kts | 15° |
| 2026-04-29 17:11 | 35.07804 | -11.25689 | 35964 ft | 478 kts | 15° |
| 2026-04-29 17:11 | 35.14185 | -11.23410 | 35967 ft | 478 kts | 15° |
| 2026-04-29 17:12 | 35.20532 | -11.21140 | 35962 ft | 478 kts | 15° |
| 2026-04-29 17:12 | 35.25884 | -11.19223 | 35958 ft | 478 kts | 15° |
| 2026-04-29 17:13 | 35.33305 | -11.16560 | 35962 ft | 478 kts | 15° |
| 2026-04-29 17:13 | 35.39694 | -11.14264 | 35958 ft | 478 kts | 15° |
| 2026-04-29 17:14 | 35.46071 | -11.11968 | 35958 ft | 478 kts | 15° |
| 2026-04-29 17:14 | 35.52454 | -11.09666 | 35962 ft | 478 kts | 15° |
| 2026-04-29 17:15 | 35.58832 | -11.07362 | 35957 ft | 478 kts | 15° |
| 2026-04-29 17:15 | 35.65210 | -11.05054 | 35960 ft | 478 kts | 15° |
| 2026-04-29 17:16 | 35.71593 | -11.02740 | 35957 ft | 478 kts | 15° |
| 2026-04-29 17:16 | 35.77986 | -11.00414 | 35957 ft | 479 kts | 12° |
| 2026-04-29 17:17 | 35.84349 | -10.98103 | 35962 ft | 481 kts | 12° |
| 2026-04-29 17:17 | 35.90781 | -10.95762 | 35959 ft | 482 kts | 12° |
| 2026-04-29 17:18 | 35.97214 | -10.93415 | 35955 ft | 483 kts | 12° |
| 2026-04-29 17:18 | 36.03669 | -10.91126 | 35951 ft | 483 kts | 11° |
| 2026-04-29 17:19 | 36.10139 | -10.88870 | 35954 ft | 483 kts | 11° |
| 2026-04-29 17:19 | 36.16615 | -10.86603 | 35953 ft | 483 kts | 11° |
| 2026-04-29 17:20 | 36.23088 | -10.84324 | 35949 ft | 483 kts | 11° |
| 2026-04-29 17:20 | 36.29555 | -10.82039 | 35951 ft | 483 kts | 11° |
| 2026-04-29 17:21 | 36.36023 | -10.79750 | 35948 ft | 483 kts | 11° |
| 2026-04-29 17:21 | 36.42443 | -10.77474 | 35947 ft | 483 kts | 11° |
| 2026-04-29 17:22 | 36.48913 | -10.75176 | 35946 ft | 483 kts | 11° |
| 2026-04-29 17:22 | 36.55365 | -10.72881 | 35946 ft | 483 kts | 11° |
| 2026-04-29 17:23 | 36.61828 | -10.70579 | 35941 ft | 483 kts | 10° |
| 2026-04-29 17:23 | 36.68281 | -10.68276 | 35944 ft | 482 kts | 10° |
| 2026-04-29 17:24 | 36.74735 | -10.65968 | 35959 ft | 483 kts | 10° |
| 2026-04-29 17:24 | 36.77969 | -10.64811 | 36092 ft | 483 kts | 10° |
| 2026-04-29 17:24 | 36.81205 | -10.63651 | 36298 ft | 482 kts | 10° |
| 2026-04-29 17:25 | 36.84380 | -10.62511 | 36508 ft | 481 kts | 10° |
| 2026-04-29 17:25 | 36.87590 | -10.61358 | 36696 ft | 480 kts | 10° |
| 2026-04-29 17:25 | 36.90800 | -10.60204 | 36843 ft | 480 kts | 10° |
| 2026-04-29 17:25 | 36.94017 | -10.59048 | 37007 ft | 480 kts | 10° |
| 2026-04-29 17:26 | 36.97223 | -10.57894 | 37193 ft | 479 kts | 10° |
| 2026-04-29 17:26 | 37.00424 | -10.56741 | 37333 ft | 479 kts | 10° |
| 2026-04-29 17:26 | 37.03628 | -10.55586 | 37500 ft | 479 kts | 10° |
| 2026-04-29 17:26 | 37.06824 | -10.54433 | 37664 ft | 478 kts | 10° |
| 2026-04-29 17:27 | 37.10021 | -10.53278 | 37819 ft | 477 kts | 10° |
| 2026-04-29 17:27 | 37.13213 | -10.52125 | 37922 ft | 478 kts | 10° |
| 2026-04-29 17:27 | 37.19619 | -10.49808 | 37932 ft | 479 kts | 10° |
| 2026-04-29 17:28 | 37.24935 | -10.47879 | 37929 ft | 478 kts | 10° |
| 2026-04-29 17:28 | 37.31327 | -10.45557 | 37933 ft | 477 kts | 10° |
| 2026-04-29 17:29 | 37.37697 | -10.43239 | 37932 ft | 476 kts | 9° |
| 2026-04-29 17:29 | 37.44059 | -10.40921 | 37931 ft | 476 kts | 10° |
| 2026-04-29 17:30 | 37.50428 | -10.38596 | 37935 ft | 476 kts | 9° |
| 2026-04-29 17:30 | 37.56782 | -10.36272 | 37931 ft | 476 kts | 9° |
| 2026-04-29 17:31 | 37.63099 | -10.33958 | 37913 ft | 476 kts | 9° |
| 2026-04-29 17:31 | 37.69463 | -10.31622 | 37916 ft | 476 kts | 9° |
| 2026-04-29 17:32 | 37.75825 | -10.29283 | 37926 ft | 476 kts | 9° |
| 2026-04-29 17:32 | 37.82180 | -10.26942 | 37922 ft | 476 kts | 10° |
| 2026-04-29 17:33 | 37.88506 | -10.24608 | 37921 ft | 476 kts | 10° |
| 2026-04-29 17:33 | 37.94872 | -10.22255 | 37918 ft | 476 kts | 10° |
| 2026-04-29 17:34 | 38.01235 | -10.19898 | 37921 ft | 476 kts | 10° |
| 2026-04-29 17:34 | 38.07608 | -10.17534 | 37915 ft | 477 kts | 10° |
| 2026-04-29 17:35 | 38.17164 | -10.13980 | 37916 ft | 477 kts | 10° |
| 2026-04-29 17:36 | 38.23536 | -10.11605 | 37911 ft | 477 kts | 10° |
| 2026-04-29 17:36 | 38.29921 | -10.09221 | 37910 ft | 478 kts | 10° |
| 2026-04-29 17:37 | 38.36304 | -10.06833 | 37913 ft | 478 kts | 10° |
| 2026-04-29 17:37 | 38.42646 | -10.04456 | 37910 ft | 478 kts | 10° |
| 2026-04-29 17:38 | 38.49045 | -10.02053 | 37908 ft | 479 kts | 10° |
| 2026-04-29 17:38 | 38.55438 | -9.99645 | 37906 ft | 479 kts | 11° |
| 2026-04-29 17:39 | 38.61814 | -9.97107 | 37893 ft | 480 kts | 12° |
| 2026-04-29 17:39 | 38.68171 | -9.94507 | 37899 ft | 480 kts | 12° |
| 2026-04-29 17:40 | 38.74552 | -9.91901 | 37905 ft | 480 kts | 12° |
| 2026-04-29 17:40 | 38.80884 | -9.89325 | 37902 ft | 480 kts | 12° |
| 2026-04-29 17:41 | 38.87251 | -9.86736 | 37900 ft | 480 kts | 12° |
| 2026-04-29 17:41 | 38.93608 | -9.84148 | 37906 ft | 479 kts | 12° |
| 2026-04-29 17:42 | 38.99966 | -9.81553 | 37897 ft | 479 kts | 12° |
| 2026-04-29 17:42 | 39.06319 | -9.78956 | 37890 ft | 479 kts | 13° |
| 2026-04-29 17:43 | 39.12673 | -9.76353 | 37893 ft | 479 kts | 13° |
| 2026-04-29 17:43 | 39.19015 | -9.73749 | 37893 ft | 478 kts | 13° |
| 2026-04-29 17:44 | 39.25364 | -9.71138 | 37890 ft | 478 kts | 13° |
| 2026-04-29 17:44 | 39.31704 | -9.68526 | 37889 ft | 478 kts | 13° |
| 2026-04-29 17:45 | 39.38004 | -9.65926 | 37890 ft | 478 kts | 13° |
| 2026-04-29 17:45 | 39.44338 | -9.63306 | 37887 ft | 478 kts | 13° |
| 2026-04-29 17:46 | 39.50673 | -9.60681 | 37885 ft | 478 kts | 13° |
| 2026-04-29 17:46 | 39.57008 | -9.58050 | 37887 ft | 478 kts | 13° |
| 2026-04-29 17:47 | 39.63331 | -9.55420 | 37881 ft | 477 kts | 13° |
| 2026-04-29 17:47 | 39.69662 | -9.52781 | 37881 ft | 477 kts | 13° |
| 2026-04-29 17:48 | 39.75985 | -9.50141 | 37880 ft | 477 kts | 13° |
| 2026-04-29 17:48 | 39.82311 | -9.47494 | 37877 ft | 478 kts | 14° |
| 2026-04-29 17:49 | 39.88641 | -9.44841 | 37878 ft | 478 kts | 14° |
| 2026-04-29 17:49 | 39.94969 | -9.42183 | 37877 ft | 478 kts | 14° |
| 2026-04-29 17:50 | 40.01294 | -9.39521 | 37876 ft | 478 kts | 14° |
| 2026-04-29 17:50 | 40.07625 | -9.36852 | 37874 ft | 478 kts | 14° |
| 2026-04-29 17:51 | 40.13949 | -9.34180 | 37876 ft | 478 kts | 14° |
| 2026-04-29 17:51 | 40.20284 | -9.31498 | 37872 ft | 478 kts | 14° |
| 2026-04-29 17:52 | 40.26604 | -9.28818 | 37874 ft | 477 kts | 14° |
| 2026-04-29 17:52 | 40.32914 | -9.26136 | 37871 ft | 477 kts | 14° |
| 2026-04-29 17:53 | 40.39220 | -9.23450 | 37872 ft | 476 kts | 14° |
| 2026-04-29 17:53 | 40.45490 | -9.20775 | 37873 ft | 476 kts | 14° |
| 2026-04-29 17:54 | 40.51787 | -9.18083 | 37873 ft | 476 kts | 15° |
| 2026-04-29 17:54 | 40.58088 | -9.15384 | 37869 ft | 476 kts | 15° |
| 2026-04-29 17:55 | 40.64397 | -9.12676 | 37870 ft | 476 kts | 15° |
| 2026-04-29 17:55 | 40.70690 | -9.09970 | 37872 ft | 476 kts | 15° |
| 2026-04-29 17:56 | 40.76987 | -9.07257 | 37858 ft | 476 kts | 15° |
| 2026-04-29 17:56 | 40.83283 | -9.04538 | 37865 ft | 476 kts | 15° |
| 2026-04-29 17:57 | 40.89549 | -9.01828 | 37861 ft | 476 kts | 15° |
| 2026-04-29 17:57 | 40.95852 | -8.99095 | 37860 ft | 477 kts | 15° |
| 2026-04-29 17:58 | 41.02155 | -8.96358 | 37861 ft | 477 kts | 15° |
| 2026-04-29 17:58 | 41.08470 | -8.93609 | 37854 ft | 478 kts | 15° |
| 2026-04-29 17:59 | 41.14790 | -8.90852 | 37856 ft | 478 kts | 16° |
| 2026-04-29 17:59 | 41.21117 | -8.88088 | 37859 ft | 479 kts | 16° |
| 2026-04-29 18:00 | 41.27443 | -8.85317 | 37857 ft | 479 kts | 16° |
| 2026-04-29 18:00 | 41.33780 | -8.82536 | 37858 ft | 479 kts | 16° |
| 2026-04-29 18:01 | 41.40108 | -8.79754 | 37850 ft | 479 kts | 16° |
| 2026-04-29 18:01 | 41.46398 | -8.76982 | 37850 ft | 479 kts | 16° |
| 2026-04-29 18:02 | 41.52724 | -8.74189 | 37855 ft | 479 kts | 16° |
| 2026-04-29 18:02 | 41.59058 | -8.71386 | 37845 ft | 480 kts | 17° |
| 2026-04-29 18:03 | 41.65440 | -8.68744 | 37849 ft | 480 kts | 16° |
| 2026-04-29 18:03 | 41.71756 | -8.65845 | 37853 ft | 480 kts | 18° |
| 2026-04-29 18:04 | 41.78075 | -8.62930 | 37843 ft | 480 kts | 17° |
| 2026-04-29 18:04 | 41.84420 | -8.60101 | 37845 ft | 480 kts | 17° |
| 2026-04-29 18:05 | 41.90696 | -8.56980 | 37844 ft | 481 kts | 20° |
| 2026-04-29 18:05 | 41.96897 | -8.53594 | 37842 ft | 481 kts | 21° |
| 2026-04-29 18:06 | 42.03104 | -8.50194 | 37848 ft | 481 kts | 21° |
| 2026-04-29 18:06 | 42.09318 | -8.46829 | 37851 ft | 482 kts | 20° |
| 2026-04-29 18:07 | 42.15505 | -8.43497 | 37851 ft | 482 kts | 20° |
| 2026-04-29 18:07 | 42.21747 | -8.40133 | 37854 ft | 483 kts | 20° |
| 2026-04-29 18:08 | 42.27986 | -8.36761 | 37853 ft | 483 kts | 20° |
| 2026-04-29 18:08 | 42.34226 | -8.33380 | 37850 ft | 483 kts | 21° |
| 2026-04-29 18:09 | 42.40465 | -8.29993 | 37834 ft | 483 kts | 21° |
| 2026-04-29 18:09 | 42.46694 | -8.26603 | 37838 ft | 483 kts | 21° |
| 2026-04-29 18:10 | 42.52929 | -8.23202 | 37830 ft | 483 kts | 21° |
| 2026-04-29 18:10 | 42.59167 | -8.19793 | 37831 ft | 483 kts | 21° |
| 2026-04-29 18:11 | 42.65395 | -8.16382 | 37844 ft | 483 kts | 21° |
| 2026-04-29 18:11 | 42.71635 | -8.12957 | 37844 ft | 483 kts | 21° |
| 2026-04-29 18:12 | 42.77870 | -8.09527 | 37841 ft | 483 kts | 21° |
| 2026-04-29 18:12 | 42.84063 | -8.06113 | 37845 ft | 483 kts | 21° |
| 2026-04-29 18:13 | 42.90301 | -8.02666 | 37838 ft | 483 kts | 21° |
| 2026-04-29 18:13 | 42.96545 | -7.99209 | 37827 ft | 484 kts | 21° |
| 2026-04-29 18:14 | 43.02785 | -7.95746 | 37829 ft | 484 kts | 21° |
| 2026-04-29 18:14 | 43.09021 | -7.92278 | 37830 ft | 484 kts | 21° |
| 2026-04-29 18:15 | 43.14203 | -7.89390 | 37824 ft | 484 kts | 21° |
| 2026-04-29 18:15 | 43.21459 | -7.85337 | 37824 ft | 484 kts | 21° |
| 2026-04-29 18:16 | 43.27700 | -7.81844 | 37824 ft | 484 kts | 21° |
| 2026-04-29 18:16 | 43.32925 | -7.78912 | 37821 ft | 484 kts | 21° |
| 2026-04-29 18:17 | 43.39172 | -7.75401 | 37825 ft | 485 kts | 22° |
| 2026-04-29 18:17 | 43.45413 | -7.71885 | 37826 ft | 485 kts | 22° |
| 2026-04-29 18:18 | 43.51652 | -7.68361 | 37834 ft | 485 kts | 22° |
| 2026-04-29 18:18 | 43.57899 | -7.64826 | 37827 ft | 485 kts | 22° |
| 2026-04-29 18:19 | 43.64150 | -7.61280 | 37825 ft | 486 kts | 22° |
| 2026-04-29 18:19 | 43.70365 | -7.57747 | 37823 ft | 486 kts | 22° |
| 2026-04-29 18:20 | 43.76609 | -7.54190 | 37827 ft | 486 kts | 22° |
| 2026-04-29 18:20 | 43.82865 | -7.50617 | 37828 ft | 486 kts | 22° |
| 2026-04-29 18:21 | 43.89116 | -7.47040 | 37841 ft | 486 kts | 22° |
| 2026-04-29 18:21 | 43.95378 | -7.43447 | 37851 ft | 487 kts | 22° |
| 2026-04-29 18:22 | 44.01639 | -7.39847 | 37830 ft | 487 kts | 22° |
| 2026-04-29 18:22 | 44.07909 | -7.36234 | 37831 ft | 487 kts | 22° |
| 2026-04-29 18:23 | 44.14170 | -7.32617 | 37837 ft | 488 kts | 22° |
| 2026-04-29 18:23 | 44.20405 | -7.29007 | 37845 ft | 488 kts | 22° |
| 2026-04-29 18:24 | 44.26710 | -7.25349 | 37841 ft | 488 kts | 22° |
| 2026-04-29 18:24 | 44.32990 | -7.21696 | 37840 ft | 489 kts | 22° |
| 2026-04-29 18:25 | 44.39227 | -7.18060 | 37836 ft | 489 kts | 22° |
| 2026-04-29 18:25 | 44.45547 | -7.14367 | 37840 ft | 490 kts | 22° |
| 2026-04-29 18:26 | 44.51793 | -7.10708 | 37855 ft | 490 kts | 22° |
| 2026-04-29 18:26 | 44.58092 | -7.07010 | 37850 ft | 490 kts | 22° |
| 2026-04-29 18:27 | 44.64386 | -7.03306 | 37850 ft | 491 kts | 23° |
| 2026-04-29 18:27 | 44.70685 | -6.99589 | 37846 ft | 491 kts | 23° |
| 2026-04-29 18:28 | 44.77000 | -6.95855 | 37847 ft | 492 kts | 23° |
| 2026-04-29 18:28 | 44.83314 | -6.92094 | 37848 ft | 492 kts | 25° |
| 2026-04-29 18:29 | 44.89296 | -6.87448 | 37845 ft | 492 kts | 31° |
| 2026-04-29 18:29 | 44.95181 | -6.82512 | 37850 ft | 492 kts | 31° |
| 2026-04-29 18:30 | 45.01076 | -6.77575 | 37851 ft | 492 kts | 31° |
| 2026-04-29 18:30 | 45.06988 | -6.72668 | 37848 ft | 493 kts | 31° |
| 2026-04-29 18:31 | 45.12864 | -6.67805 | 37852 ft | 493 kts | 31° |
| 2026-04-29 18:31 | 45.18779 | -6.62901 | 37848 ft | 493 kts | 31° |
| 2026-04-29 18:32 | 45.24711 | -6.57968 | 37849 ft | 493 kts | 31° |
| 2026-04-29 18:32 | 45.33584 | -6.50563 | 37870 ft | 493 kts | 31° |
| 2026-04-29 18:33 | 45.39504 | -6.45608 | 37848 ft | 493 kts | 31° |
| 2026-04-29 18:33 | 45.45375 | -6.40681 | 37851 ft | 493 kts | 31° |
| 2026-04-29 18:34 | 45.50322 | -6.36521 | 37860 ft | 493 kts | 31° |
| 2026-04-29 18:34 | 45.57194 | -6.30727 | 37855 ft | 493 kts | 31° |
| 2026-04-29 18:35 | 45.63096 | -6.25738 | 37851 ft | 493 kts | 32° |
| 2026-04-29 18:35 | 45.69000 | -6.20735 | 37847 ft | 493 kts | 32° |
| 2026-04-29 18:36 | 45.74906 | -6.15718 | 37853 ft | 493 kts | 32° |
| 2026-04-29 18:36 | 45.80811 | -6.10688 | 37863 ft | 493 kts | 32° |
| 2026-04-29 18:37 | 45.86672 | -6.05685 | 37860 ft | 493 kts | 32° |
| 2026-04-29 18:37 | 45.92555 | -6.00649 | 37862 ft | 493 kts | 32° |
| 2026-04-29 18:38 | 45.98448 | -5.95593 | 37861 ft | 493 kts | 32° |
| 2026-04-29 18:38 | 46.04325 | -5.90537 | 37873 ft | 493 kts | 32° |
| 2026-04-29 18:39 | 46.10212 | -5.85461 | 37865 ft | 493 kts | 32° |
| 2026-04-29 18:39 | 46.16086 | -5.80382 | 37869 ft | 492 kts | 32° |
| 2026-04-29 18:40 | 46.21965 | -5.75287 | 37864 ft | 492 kts | 32° |
| 2026-04-29 18:40 | 46.27836 | -5.70186 | 37860 ft | 492 kts | 32° |
| 2026-04-29 18:41 | 46.39575 | -5.59946 | 37870 ft | 492 kts | 32° |
| 2026-04-29 18:42 | 46.45446 | -5.54806 | 37876 ft | 492 kts | 32° |
| 2026-04-29 18:42 | 46.51305 | -5.49663 | 37882 ft | 492 kts | 32° |
| 2026-04-29 18:43 | 46.57126 | -5.44540 | 37883 ft | 492 kts | 33° |
| 2026-04-29 18:43 | 46.62977 | -5.39378 | 37883 ft | 492 kts | 33° |
| 2026-04-29 18:44 | 46.68832 | -5.34199 | 37886 ft | 492 kts | 33° |
| 2026-04-29 18:44 | 46.74674 | -5.29019 | 37887 ft | 492 kts | 33° |
| 2026-04-29 18:45 | 46.80522 | -5.23820 | 37891 ft | 491 kts | 33° |
| 2026-04-29 18:45 | 46.86364 | -5.18612 | 37895 ft | 491 kts | 33° |
| 2026-04-29 18:46 | 46.92194 | -5.13403 | 37897 ft | 491 kts | 33° |
| 2026-04-29 18:46 | 46.98017 | -5.08185 | 37898 ft | 491 kts | 33° |
| 2026-04-29 18:47 | 47.03804 | -5.02987 | 37895 ft | 490 kts | 33° |
| 2026-04-29 18:47 | 47.09613 | -4.97755 | 37906 ft | 490 kts | 33° |
| 2026-04-29 18:48 | 47.15427 | -4.92505 | 37905 ft | 490 kts | 33° |
| 2026-04-29 18:48 | 47.21231 | -4.87250 | 37903 ft | 489 kts | 33° |
| 2026-04-29 18:49 | 47.27016 | -4.82000 | 37907 ft | 489 kts | 33° |
| 2026-04-29 18:49 | 47.32805 | -4.76731 | 37912 ft | 489 kts | 33° |
| 2026-04-29 18:50 | 47.38587 | -4.71456 | 37917 ft | 488 kts | 33° |
| 2026-04-29 18:50 | 47.44362 | -4.66173 | 37918 ft | 488 kts | 33° |
| 2026-04-29 18:51 | 47.50098 | -4.60912 | 37920 ft | 488 kts | 33° |
| 2026-04-29 18:51 | 47.55859 | -4.55614 | 37917 ft | 487 kts | 34° |
| 2026-04-29 18:52 | 47.61622 | -4.50299 | 37922 ft | 487 kts | 34° |
| 2026-04-29 18:52 | 47.67372 | -4.44984 | 37916 ft | 487 kts | 34° |
| 2026-04-29 18:53 | 47.73128 | -4.39647 | 37927 ft | 487 kts | 34° |
| 2026-04-29 18:53 | 47.78880 | -4.34302 | 37935 ft | 487 kts | 34° |
| 2026-04-29 18:54 | 47.84960 | -4.29861 | 37932 ft | 490 kts | 18° |
| 2026-04-29 18:54 | 47.91481 | -4.27095 | 37936 ft | 490 kts | 16° |
| 2026-04-29 18:55 | 47.98072 | -4.24419 | 37939 ft | 491 kts | 16° |
| 2026-04-29 18:55 | 48.04646 | -4.21663 | 37944 ft | 491 kts | 17° |
| 2026-04-29 18:56 | 48.11221 | -4.18840 | 37942 ft | 491 kts | 17° |
| 2026-04-29 18:56 | 48.17788 | -4.16001 | 37942 ft | 491 kts | 17° |
| 2026-04-29 18:57 | 48.24350 | -4.13158 | 37934 ft | 491 kts | 17° |
| 2026-04-29 18:57 | 48.30909 | -4.10313 | 37950 ft | 491 kts | 17° |
| 2026-04-29 18:58 | 48.37470 | -4.07460 | 37962 ft | 490 kts | 17° |
| 2026-04-29 18:58 | 48.44026 | -4.04601 | 37951 ft | 490 kts | 17° |
| 2026-04-29 18:59 | 48.50573 | -4.01739 | 37944 ft | 490 kts | 17° |
| 2026-04-29 18:59 | 48.57109 | -3.98873 | 37940 ft | 489 kts | 17° |
| 2026-04-29 19:00 | 48.63655 | -3.95996 | 37943 ft | 489 kts | 17° |
| 2026-04-29 19:00 | 48.70139 | -3.93137 | 37938 ft | 489 kts | 17° |
| 2026-04-29 19:01 | 48.76671 | -3.90251 | 37951 ft | 488 kts | 17° |
| 2026-04-29 19:01 | 48.83196 | -3.87358 | 37947 ft | 488 kts | 17° |
| 2026-04-29 19:02 | 48.88619 | -3.84948 | 37971 ft | 488 kts | 17° |
| 2026-04-29 19:02 | 48.95131 | -3.82049 | 37978 ft | 488 kts | 17° |
| 2026-04-29 19:03 | 49.01828 | -3.80407 | 37982 ft | 489 kts | 3° |
| 2026-04-29 19:03 | 49.08635 | -3.80083 | 37972 ft | 489 kts | 1° |
| 2026-04-29 19:04 | 49.15451 | -3.79796 | 37979 ft | 490 kts | 2° |
| 2026-04-29 19:04 | 49.22263 | -3.79420 | 37982 ft | 490 kts | 3° |
| 2026-04-29 19:05 | 49.29087 | -3.79001 | 37991 ft | 490 kts | 3° |
| 2026-04-29 19:05 | 49.35910 | -3.78576 | 37991 ft | 491 kts | 3° |
| 2026-04-29 19:06 | 49.42745 | -3.78154 | 38003 ft | 491 kts | 3° |
| 2026-04-29 19:07 | 49.52950 | -3.77526 | 38008 ft | 491 kts | 3° |
| 2026-04-29 19:07 | 49.59777 | -3.77103 | 38007 ft | 490 kts | 3° |
| 2026-04-29 19:08 | 49.66575 | -3.76683 | 38015 ft | 488 kts | 3° |
| 2026-04-29 19:08 | 49.73334 | -3.76167 | 38013 ft | 482 kts | 5° |
| 2026-04-29 19:09 | 49.79985 | -3.75346 | 38040 ft | 479 kts | 6° |
| 2026-04-29 19:09 | 49.86651 | -3.74487 | 38039 ft | 481 kts | 6° |
| 2026-04-29 19:10 | 49.93270 | -3.73678 | 38052 ft | 479 kts | 6° |
| 2026-04-29 19:10 | 49.99920 | -3.72884 | 38053 ft | 478 kts | 6° |
| 2026-04-29 19:11 | 50.06554 | -3.72095 | 38065 ft | 477 kts | 6° |
| 2026-04-29 19:11 | 50.13152 | -3.71304 | 38067 ft | 476 kts | 6° |
| 2026-04-29 19:12 | 50.19743 | -3.70510 | 38076 ft | 474 kts | 6° |
| 2026-04-29 19:12 | 50.26321 | -3.69717 | 38090 ft | 474 kts | 6° |
| 2026-04-29 19:13 | 50.32912 | -3.68918 | 38390 ft | 476 kts | 6° |
| 2026-04-29 19:13 | 50.36212 | -3.68518 | 38576 ft | 476 kts | 6° |
| 2026-04-29 19:13 | 50.37330 | -3.68383 | 38659 ft | 476 kts | 6° |
| 2026-04-29 19:13 | 50.39221 | -3.68153 | 38785 ft | 476 kts | 6° |
| 2026-04-29 19:14 | 50.42515 | -3.67690 | 38966 ft | 475 kts | 8° |
| 2026-04-29 19:14 | 50.49022 | -3.66452 | 39081 ft | 468 kts | 9° |
| 2026-04-29 19:15 | 50.55476 | -3.65139 | 39101 ft | 469 kts | 9° |
| 2026-04-29 19:15 | 50.61939 | -3.63869 | 39112 ft | 474 kts | 8° |
| 2026-04-29 19:16 | 50.68515 | -3.62612 | 39108 ft | 477 kts | 8° |
| 2026-04-29 19:16 | 50.75115 | -3.61359 | 39109 ft | 478 kts | 8° |
| 2026-04-29 19:17 | 50.81734 | -3.60097 | 39108 ft | 479 kts | 8° |
| 2026-04-29 19:17 | 50.88353 | -3.58830 | 39110 ft | 479 kts | 8° |
| 2026-04-29 19:18 | 50.94964 | -3.57560 | 39119 ft | 479 kts | 8° |
| 2026-04-29 19:18 | 51.01579 | -3.56285 | 39134 ft | 479 kts | 8° |
| 2026-04-29 19:19 | 51.08193 | -3.55006 | 39158 ft | 479 kts | 9° |
| 2026-04-29 19:19 | 51.14775 | -3.53730 | 39149 ft | 479 kts | 8° |
| 2026-04-29 19:20 | 51.21383 | -3.52446 | 39155 ft | 479 kts | 8° |
| 2026-04-29 19:20 | 51.27990 | -3.51158 | 39150 ft | 479 kts | 8° |
| 2026-04-29 19:21 | 51.34603 | -3.49865 | 39160 ft | 478 kts | 8° |
| 2026-04-29 19:21 | 51.41224 | -3.48566 | 39159 ft | 479 kts | 8° |
| 2026-04-29 19:22 | 51.47835 | -3.47266 | 39157 ft | 479 kts | 8° |
| 2026-04-29 19:22 | 51.54459 | -3.45959 | 39165 ft | 479 kts | 8° |
| 2026-04-29 19:23 | 51.61038 | -3.44658 | 39180 ft | 480 kts | 8° |
| 2026-04-29 19:23 | 51.67673 | -3.43342 | 39187 ft | 480 kts | 8° |
| 2026-04-29 19:24 | 51.74303 | -3.42023 | 39254 ft | 480 kts | 8° |
| 2026-04-29 19:24 | 51.80939 | -3.40698 | 39244 ft | 481 kts | 8° |
| 2026-04-29 19:25 | 51.87580 | -3.39369 | 39246 ft | 480 kts | 8° |
| 2026-04-29 19:25 | 51.94217 | -3.38108 | 39233 ft | 481 kts | 6° |
| 2026-04-29 19:26 | 52.00899 | -3.37537 | 39231 ft | 481 kts | 3° |
| 2026-04-29 19:26 | 52.07583 | -3.37181 | 39228 ft | 480 kts | 3° |
| 2026-04-29 19:27 | 52.14221 | -3.36759 | 39241 ft | 479 kts | 4° |
| 2026-04-29 19:27 | 52.20891 | -3.36276 | 39243 ft | 478 kts | 4° |
| 2026-04-29 19:28 | 52.27528 | -3.35785 | 39248 ft | 477 kts | 4° |
| 2026-04-29 19:28 | 52.34157 | -3.35296 | 39249 ft | 476 kts | 4° |
| 2026-04-29 19:29 | 52.40760 | -3.34809 | 39261 ft | 474 kts | 4° |
| 2026-04-29 19:29 | 52.47345 | -3.34208 | 39257 ft | 472 kts | 9° |
| 2026-04-29 19:30 | 52.53800 | -3.32395 | 39266 ft | 470 kts | 13° |
| 2026-04-29 19:30 | 52.60211 | -3.30292 | 39278 ft | 470 kts | 13° |
| 2026-04-29 19:31 | 52.66626 | -3.28267 | 39276 ft | 467 kts | 13° |
| 2026-04-29 19:31 | 52.69785 | -3.27301 | 39154 ft | 457 kts | 13° |
| 2026-04-29 19:31 | 52.72903 | -3.26356 | 38714 ft | 453 kts | 13° |
| 2026-04-29 19:31 | 52.75964 | -3.25427 | 38024 ft | 454 kts | 13° |
| 2026-04-29 19:32 | 52.79077 | -3.24480 | 37393 ft | 454 kts | 13° |
| 2026-04-29 19:32 | 52.82175 | -3.23536 | 36738 ft | 453 kts | 14° |
| 2026-04-29 19:32 | 52.85279 | -3.22588 | 36138 ft | 454 kts | 14° |
| 2026-04-29 19:32 | 52.88391 | -3.21634 | 35554 ft | 457 kts | 14° |
| 2026-04-29 19:33 | 52.91533 | -3.20669 | 34973 ft | 461 kts | 14° |
| 2026-04-29 19:33 | 52.94704 | -3.19695 | 34416 ft | 465 kts | 14° |
| 2026-04-29 19:33 | 52.97896 | -3.18714 | 33761 ft | 466 kts | 14° |
| 2026-04-29 19:33 | 53.01084 | -3.17733 | 33120 ft | 466 kts | 14° |
| 2026-04-29 19:34 | 53.04200 | -3.16390 | 32473 ft | 461 kts | 25° |
| 2026-04-29 19:34 | 53.07067 | -3.14063 | 31860 ft | 455 kts | 35° |
| 2026-04-29 19:34 | 53.09600 | -3.10997 | 31256 ft | 450 kts | 46° |
| 2026-04-29 19:34 | 53.11774 | -3.07275 | 30689 ft | 453 kts | 51° |
| 2026-04-29 19:35 | 53.13891 | -3.03402 | 30040 ft | 450 kts | 51° |
| 2026-04-29 19:35 | 53.15975 | -2.99554 | 29366 ft | 446 kts | 51° |
| 2026-04-29 19:35 | 53.18053 | -2.95733 | 28695 ft | 443 kts | 51° |
| 2026-04-29 19:35 | 53.20119 | -2.91961 | 28056 ft | 439 kts | 51° |
| 2026-04-29 19:36 | 53.22175 | -2.88228 | 27424 ft | 436 kts | 51° |
| 2026-04-29 19:36 | 53.24232 | -2.84504 | 26804 ft | 433 kts | 51° |
| 2026-04-29 19:36 | 53.26267 | -2.80823 | 26207 ft | 430 kts | 51° |
| 2026-04-29 19:36 | 53.28292 | -2.77156 | 25614 ft | 427 kts | 51° |
| 2026-04-29 19:37 | 53.30293 | -2.73528 | 25038 ft | 424 kts | 51° |
| 2026-04-29 19:37 | 53.31614 | -2.71128 | 24663 ft | 422 kts | 51° |
| 2026-04-29 19:37 | 53.34258 | -2.66316 | 23916 ft | 418 kts | 52° |
| 2026-04-29 19:37 | 53.35560 | -2.63944 | 23489 ft | 416 kts | 52° |
| 2026-04-29 19:38 | 53.35982 | -2.63175 | 23343 ft | 415 kts | 52° |
| 2026-04-29 19:38 | 53.37953 | -2.59577 | 22682 ft | 407 kts | 52° |
| 2026-04-29 19:38 | 53.39834 | -2.56141 | 22069 ft | 395 kts | 52° |
| 2026-04-29 19:38 | 53.41666 | -2.52790 | 21440 ft | 385 kts | 52° |
| 2026-04-29 19:39 | 53.43452 | -2.49517 | 20806 ft | 376 kts | 52° |
| 2026-04-29 19:39 | 53.45197 | -2.46314 | 20187 ft | 368 kts | 52° |
| 2026-04-29 19:39 | 53.46930 | -2.43205 | 19584 ft | 362 kts | 49° |
| 2026-04-29 19:39 | 53.48848 | -2.40577 | 18998 ft | 360 kts | 40° |
| 2026-04-29 19:40 | 53.50884 | -2.38176 | 18392 ft | 354 kts | 40° |
| 2026-04-29 19:40 | 53.52899 | -2.35843 | 17727 ft | 349 kts | 39° |
| 2026-04-29 19:40 | 53.54883 | -2.33539 | 17072 ft | 344 kts | 40° |
| 2026-04-29 19:40 | 53.56831 | -2.31257 | 16446 ft | 340 kts | 40° |
| 2026-04-29 19:41 | 53.58755 | -2.28988 | 15821 ft | 335 kts | 40° |
| 2026-04-29 19:41 | 53.60657 | -2.26733 | 15214 ft | 332 kts | 40° |
| 2026-04-29 19:41 | 53.62527 | -2.24508 | 14625 ft | 328 kts | 40° |
| 2026-04-29 19:41 | 53.64381 | -2.22297 | 14055 ft | 325 kts | 40° |
| 2026-04-29 19:42 | 53.66216 | -2.20107 | 13453 ft | 320 kts | 40° |
| 2026-04-29 19:42 | 53.66825 | -2.19379 | 13278 ft | 318 kts | 40° |
| 2026-04-29 19:42 | 53.69793 | -2.15831 | 12384 ft | 310 kts | 40° |
| 2026-04-29 19:42 | 53.71541 | -2.13737 | 11863 ft | 306 kts | 40° |
| 2026-04-29 19:43 | 53.73263 | -2.11673 | 11345 ft | 302 kts | 40° |
| 2026-04-29 19:43 | 53.74970 | -2.09623 | 10840 ft | 299 kts | 40° |
| 2026-04-29 19:43 | 53.76853 | -2.08021 | 10319 ft | 304 kts | 21° |
| 2026-04-29 19:43 | 53.78912 | -2.07405 | 9804 ft | 305 kts | 11° |
| 2026-04-29 19:44 | 53.81013 | -2.07044 | 9299 ft | 302 kts | 10° |
| 2026-04-29 19:44 | 53.83095 | -2.06725 | 8813 ft | 298 kts | 10° |
| 2026-04-29 19:44 | 53.85143 | -2.06424 | 8330 ft | 294 kts | 10° |
| 2026-04-29 19:44 | 53.87172 | -2.06132 | 7854 ft | 290 kts | 10° |
| 2026-04-29 19:45 | 53.89176 | -2.05848 | 7391 ft | 287 kts | 10° |
| 2026-04-29 19:45 | 53.91152 | -2.05563 | 6946 ft | 283 kts | 13° |
| 2026-04-29 19:45 | 53.92975 | -2.04646 | 6519 ft | 264 kts | 33° |
| 2026-04-29 19:45 | 53.94502 | -2.03068 | 6177 ft | 252 kts | 39° |
| 2026-04-29 19:46 | 53.95950 | -2.01450 | 5824 ft | 246 kts | 40° |
| 2026-04-29 19:46 | 53.97356 | -1.99861 | 5503 ft | 239 kts | 42° |
| 2026-04-29 19:46 | 53.98569 | -1.98018 | 5197 ft | 230 kts | 50° |
| 2026-04-29 19:46 | 53.99325 | -1.96788 | 5059 ft | 223 kts | 50° |
| 2026-04-29 19:47 | 54.00430 | -1.95007 | 4873 ft | 214 kts | 50° |
| 2026-04-29 19:47 | 54.01483 | -1.93299 | 4682 ft | 203 kts | 54° |
| 2026-04-29 19:47 | 54.02033 | -1.91282 | 4467 ft | 182 kts | 92° |
| 2026-04-29 19:47 | 54.01556 | -1.89434 | 4302 ft | 171 kts | 131° |
| 2026-04-29 19:48 | 54.00474 | -1.87614 | 4088 ft | 161 kts | 131° |
| 2026-04-29 19:48 | 53.99930 | -1.86725 | 4058 ft | 163 kts | 132° |
| 2026-04-29 19:48 | 53.99093 | -1.85401 | 4011 ft | 164 kts | 133° |
| 2026-04-29 19:48 | 53.98328 | -1.84214 | 3999 ft | 159 kts | 133° |
| 2026-04-29 19:49 | 53.97580 | -1.83058 | 3944 ft | 156 kts | 133° |
| 2026-04-29 19:49 | 53.96813 | -1.81872 | 3768 ft | 159 kts | 132° |
| 2026-04-29 19:49 | 53.96013 | -1.80637 | 3526 ft | 158 kts | 132° |
| 2026-04-29 19:49 | 53.95212 | -1.79402 | 3270 ft | 151 kts | 132° |
| 2026-04-29 19:50 | 53.94467 | -1.78255 | 3059 ft | 139 kts | 131° |
| 2026-04-29 19:50 | 53.93762 | -1.77164 | 2840 ft | 132 kts | 131° |
| 2026-04-29 19:50 | 53.93102 | -1.76143 | 2604 ft | 125 kts | 130° |
| 2026-04-29 19:50 | 53.92478 | -1.75179 | 2425 ft | 115 kts | 130° |
| 2026-04-29 19:51 | 53.91877 | -1.74247 | 2233 ft | 119 kts | 129° |
| 2026-04-29 19:51 | 53.91259 | -1.73290 | 2052 ft | 122 kts | 129° |
| 2026-04-29 19:51 | 53.90628 | -1.72314 | 1847 ft | 123 kts | 128° |
| 2026-04-29 19:51 | 53.89991 | -1.71328 | 1635 ft | 125 kts | 131° |
| 2026-04-29 19:52 | 53.89332 | -1.70291 | 1454 ft | 129 kts | 131° |
| 2026-04-29 19:52 | 53.88662 | -1.69260 | 1214 ft | 131 kts | 134° |
| 2026-04-29 19:52 | 53.87981 | -1.68205 | 989 ft | 135 kts | 132° |
| 2026-04-29 19:52 | 53.87279 | -1.67133 | 751 ft | 135 kts | 134° |
| 2026-04-29 19:53 | 53.86622 | -1.66108 | 661 ft | 109 kts | 137° |
| 2026-04-29 19:53 | 53.86223 | -1.65493 | 676 ft | 44 kts | 137° |
| 2026-04-29 19:53 | 53.86098 | -1.65313 | 675 ft | 13 kts | 143° |
| 2026-04-29 19:53 | 53.86032 | -1.65233 | 668 ft | 7 kts | 145° |
| 2026-04-29 19:54 | 53.86034 | -1.65191 | 669 ft | 0 kts | 18° |
| 2026-04-29 19:54 | 53.86058 | -1.65230 | 670 ft | 9 kts | 308° |
| 2026-04-29 19:54 | 53.86098 | -1.65302 | 675 ft | 8 kts | 315° |
| 2026-04-29 19:55 | 53.86147 | -1.65378 | 677 ft | 12 kts | 317° |
| 2026-04-29 19:55 | 53.86242 | -1.65468 | 676 ft | 18 kts | 359° |
| 2026-04-29 19:55 | 53.86371 | -1.65455 | 673 ft | 19 kts | 3° |
| 2026-04-29 19:55 | 53.86497 | -1.65442 | 670 ft | 16 kts | 3° |
| 2026-04-29 19:56 | 53.86601 | -1.65433 | 667 ft | 15 kts | 4° |
| 2026-04-29 19:56 | 53.86710 | -1.65416 | 664 ft | 16 kts | 7° |
| 2026-04-29 19:56 | 53.86796 | -1.65428 | 663 ft | 9 kts | 332° |
| 2026-04-29 19:56 | 53.86814 | -1.65521 | 664 ft | 9 kts | 271° |
| 2026-04-29 19:57 | 53.86815 | -1.65595 | 664 ft | 3 kts | 271° |
| 2026-04-29 19:57 | 53.86817 | -1.65614 | 664 ft | 2 kts | 288° |
| 2026-04-29 19:57 | 53.86842 | -1.65623 | 664 ft | 7 kts | 4° |
| 2026-04-29 19:57 | 53.86870 | -1.65622 | 664 ft | 2 kts | 1° |
| 2026-04-29 19:58 | 53.86878 | -1.65622 | 664 ft | 1 kts | 1° |
| 2026-04-29 19:58 | 53.86880 | -1.65622 | 664 ft | 0 kts | 1° |